Time;durP1;ratioP1;P1;durP2;ratioP2;P2;SDS_P1;SDS_P2;PMS_P1;PMS_P2;Temp;Humidity;BMP_temperature;BMP_pressure;BME280_temperature;BME280_humidity;BME280_pressure;Samples;Min_cycle;Max_cycle;Signal;HPM_P1;HPM_P2
2023/10/06 00:00:19;;;;;;;;;;;;;;;18.03;63.60;100181.69;284884;33;7395;-75
2023/10/06 00:00:40;;;;;;;;;;;;;;;17.89;63.79;100174.59;290602;33;7503;-76
2023/10/06 00:00:50;;;;;;;;;;;;;;;17.84;64.02;100175.84;290187;34;1301;-76
2023/10/06 00:01:01;;;;;;;;;;;;;;;17.84;64.01;100167.91;285226;34;7862;-75
2023/10/06 00:01:12;;;;;;;;;;;;;;;17.84;64.12;100175.84;285542;34;8535;-74
2023/10/06 00:01:25;;;;;;;;;;;;;;;17.87;64.13;100180.94;285818;34;9293;-75
2023/10/06 00:01:37;;;;;;;;;;;;;;;17.89;64.12;100179.06;284321;34;1308;-75
2023/10/06 00:01:47;;;;;;;;;;;;;;;17.91;64.00;100177.16;283668;34;1896;-75
2023/10/06 00:03:44;;;;;;;;;;;;;;;18.03;63.81;100181.69;2500662;27;19926;-75
2023/10/06 00:03:58;;;;;;;;;;;;;;;18.02;63.95;100174.69;354483;27;799;-76
2023/10/06 00:04:12;;;;;;;;;;;;;;;18.03;63.97;100180.84;354646;27;1206;-76
2023/10/06 00:04:22;;;;;;;;;;;;;;;18.02;63.85;100177.34;354500;27;1433;-73
2023/10/06 00:04:41;;;;;;;;;;;;;;;18.00;63.91;100184.53;353258;28;1328;-77
2023/10/06 00:04:51;;;;;;;;;;;;;;;17.99;63.93;100172.25;351980;28;844;-77
2023/10/06 00:05:11;;;;;;;;;;;;;;;17.99;63.98;100184.63;350578;28;819;-75
2023/10/06 00:05:23;;;;;;;;;;;;;;;17.99;64.07;100179.34;348947;28;1411;-75
2023/10/06 00:05:33;;;;;;;;;;;;;;;17.97;64.14;100181.22;347708;28;978;-75
2023/10/06 00:05:48;;;;;;;;;;;;;;;17.98;64.08;100178.50;346586;28;789;-75
2023/10/06 00:05:58;;;;;;;;;;;;;;;17.97;64.15;100187.38;347548;28;1284;-75
2023/10/06 00:06:12;;;;;;;;;;;;;;;17.95;64.23;100181.31;345594;28;1124;-75
2023/10/06 00:06:22;;;;;;;;;;;;;;;17.94;64.26;100172.53;349054;28;953;-75
2023/10/06 00:06:37;;;;;;;;;;;;;;;17.94;64.16;100177.81;347534;28;1209;-75
2023/10/06 00:06:48;;;;;;;;;;;;;;;17.93;64.19;100169.97;347698;28;891;-75
2023/10/06 00:07:06;;;;;;;;;;;;;;;17.94;64.19;100176.97;345705;28;2629;-74
2023/10/06 00:07:20;;;;;;;;;;;;;;;17.93;64.18;100175.28;347878;28;4601;-75
2023/10/06 00:07:31;;;;;;;;;;;;;;;17.92;64.29;100174.41;348951;28;904;-75
2023/10/06 00:07:41;;;;;;;;;;;;;;;17.93;64.18;100175.28;350075;28;4367;-75
2023/10/06 00:07:51;;;;;;;;;;;;;;;17.93;64.24;100180.56;348693;28;1311;-75
2023/10/06 00:08:06;;;;;;;;;;;;;;;17.93;64.25;100176.13;348827;28;1211;-75
2023/10/06 00:08:32;;;;;;;;;;;;;;;17.92;64.25;100176.22;347773;28;809;-76
2023/10/06 00:08:47;;;;;;;;;;;;;;;17.90;64.30;100175.47;344919;28;1654;-76
2023/10/06 00:09:05;;;;;;;;;;;;;;;17.89;64.49;100173.75;344896;28;893;-73
2023/10/06 00:09:48;;;;;;;;;;;;;;;17.90;64.38;100175.47;342174;28;1258;-75
2023/10/06 00:09:53;;;;;;;;;;;;;;;17.90;64.49;100173.66;340033;28;1449;-74
2023/10/06 00:10:09;;;;;;;;;;;;;;;17.90;64.63;100176.31;343334;28;1233;-75
2023/10/06 00:10:26;;;;;;;;;;;;;;;17.91;64.46;100179.81;344787;28;1388;-75
2023/10/06 00:10:44;;;;;;;;;;;;;;;17.91;64.42;100177.16;343074;28;886;-75
2023/10/06 00:10:55;;;;;;;;;;;;;;;17.90;64.73;100178.09;343671;28;852;-75
2023/10/06 00:11:11;;;;;;;;;;;;;;;17.91;64.57;100171.88;342515;28;911;-75
2023/10/06 00:11:29;;;;;;;;;;;;;;;17.91;64.52;100182.47;343862;28;1265;-75
2023/10/06 00:11:40;;;;;;;;;;;;;;;17.90;64.48;100176.31;345389;28;1273;-75
2023/10/06 00:11:50;;;;;;;;;;;;;;;17.90;64.54;100178.09;345079;28;1690;-75
2023/10/06 00:12:05;;;;;;;;;;;;;;;17.87;64.56;100171.19;343372;28;1355;-75
2023/10/06 00:12:16;;;;;;;;;;;;;;;17.87;64.63;100180.94;340989;29;924;-75
2023/10/06 00:12:27;;;;;;;;;;;;;;;17.87;64.53;100180.94;343016;28;1304;-76
2023/10/06 00:12:39;;;;;;;;;;;;;;;17.87;64.72;100175.66;343329;28;1319;-76
2023/10/06 00:12:54;;;;;;;;;;;;;;;17.87;64.90;100175.66;343526;28;1185;-76
2023/10/06 00:13:05;;;;;;;;;;;;;;;17.86;64.91;100174.78;341935;28;1257;-75
2023/10/06 00:13:18;;;;;;;;;;;;;;;17.87;64.77;100173.00;340877;29;861;-75
2023/10/06 00:13:29;;;;;;;;;;;;;;;17.85;64.88;100170.44;340940;29;889;-75
2023/10/06 00:13:39;;;;;;;;;;;;;;;17.85;64.81;100166.94;341634;28;1370;-75
2023/10/06 00:14:00;;;;;;;;;;;;;;;17.85;64.69;100170.44;339134;28;2566;-76
2023/10/06 00:14:18;;;;;;;;;;;;;;;17.84;64.81;100167.91;337901;29;1980;-75
2023/10/06 00:14:48;;;;;;;;;;;;;;;17.83;64.88;100167.03;333223;29;928;-75
2023/10/06 00:14:59;;;;;;;;;;;;;;;17.82;64.86;100167.13;330690;29;891;-75
2023/10/06 00:15:11;;;;;;;;;;;;;;;17.81;64.84;100168.06;330126;29;903;-75
2023/10/06 00:15:28;;;;;;;;;;;;;;;17.81;64.75;100171.56;331333;29;1222;-75
2023/10/06 00:15:38;;;;;;;;;;;;;;;17.84;64.75;100167.91;330294;29;1868;-75
2023/10/06 00:15:49;;;;;;;;;;;;;;;17.84;64.74;100170.53;330225;29;2468;-75
2023/10/06 00:16:00;;;;;;;;;;;;;;;17.85;64.66;100162.50;329312;30;674;-75
2023/10/06 00:16:11;;;;;;;;;;;;;;;17.84;64.68;100167.91;330229;29;2442;-75
2023/10/06 00:16:21;;;;;;;;;;;;;;;17.84;64.74;100165.25;327719;29;6631;-74
2023/10/06 00:16:38;;;;;;;;;;;;;;;17.83;64.79;100164.41;325507;30;4152;-76
2023/10/06 00:16:49;;;;;;;;;;;;;;;17.82;64.90;100165.34;324100;30;4258;-75
2023/10/06 00:16:59;;;;;;;;;;;;;;;17.81;64.88;100165.44;323177;30;1386;-77
2023/10/06 00:17:17;;;;;;;;;;;;;;;17.81;65.06;100168.06;323055;30;1696;-76
2023/10/06 00:17:33;;;;;;;;;;;;;;;17.82;64.91;100167.97;327742;30;1339;-75
2023/10/06 00:17:48;;;;;;;;;;;;;;;17.81;64.97;100165.44;322178;30;1675;-76
2023/10/06 00:18:00;;;;;;;;;;;;;;;17.82;65.20;100167.13;319731;30;1325;-75
2023/10/06 00:18:19;;;;;;;;;;;;;;;17.78;65.22;100165.63;317085;30;3058;-75
2023/10/06 00:18:29;;;;;;;;;;;;;;;17.79;65.11;100169.97;315288;31;874;-76
2023/10/06 00:18:39;;;;;;;;;;;;;;;17.79;65.08;100162.88;316221;31;4028;-75
2023/10/06 00:18:52;;;;;;;;;;;;;;;17.78;65.01;100168.28;315951;31;3509;-76
2023/10/06 00:19:14;;;;;;;;;;;;;;;17.77;65.12;100166.56;317422;31;861;-75
2023/10/06 00:19:31;;;;;;;;;;;;;;;17.75;65.15;100165.84;309920;31;3052;-75
2023/10/06 00:19:42;;;;;;;;;;;;;;;17.75;65.33;100166.69;312797;31;2317;-75
2023/10/06 00:19:55;;;;;;;;;;;;;;;17.74;65.38;100164.13;312832;31;3001;-76
2023/10/06 00:20:21;;;;;;;;;;;;;;;17.76;65.28;100170.19;312392;31;3526;-75
2023/10/06 00:20:39;;;;;;;;;;;;;;;17.77;65.07;100163.91;307397;32;1507;-75
2023/10/06 00:20:49;;;;;;;;;;;;;;;17.78;65.19;100165.63;302462;32;4811;-75
2023/10/06 00:21:05;;;;;;;;;;;;;;;17.79;65.10;100162.03;301187;32;837;-75
2023/10/06 00:21:15;;;;;;;;;;;;;;;17.79;65.29;100162.03;299178;33;846;-75
2023/10/06 00:21:28;;;;;;;;;;;;;;;17.79;65.20;100167.31;294834;33;4174;-75
2023/10/06 00:21:46;;;;;;;;;;;;;;;17.80;65.19;100169.03;292968;33;3201;-75
2023/10/06 00:22:26;;;;;;;;;;;;;;;17.80;65.26;100169.03;289702;33;5253;-75
2023/10/06 00:22:38;;;;;;;;;;;;;;;17.79;65.30;100169.97;290051;33;5904;-75
2023/10/06 00:22:49;;;;;;;;;;;;;;;17.79;65.24;100162.03;291074;33;5465;-75
2023/10/06 00:23:05;;;;;;;;;;;;;;;17.78;65.32;100160.31;290473;34;1390;-75
2023/10/06 00:23:21;;;;;;;;;;;;;;;17.78;65.34;100163.81;287432;34;782;-75
2023/10/06 00:23:31;;;;;;;;;;;;;;;17.77;65.32;100169.22;284642;34;770;-76
2023/10/06 00:23:43;;;;;;;;;;;;;;;17.77;65.33;100167.41;284601;34;5689;-76
2023/10/06 00:23:54;;;;;;;;;;;;;;;17.78;65.37;100170.91;284740;34;4571;-76
2023/10/06 00:24:05;;;;;;;;;;;;;;;17.76;65.35;100167.53;282900;34;5681;-76
2023/10/06 00:24:15;;;;;;;;;;;;;;;17.75;65.23;100158.75;282987;35;848;-76
2023/10/06 00:24:26;;;;;;;;;;;;;;;17.77;65.31;100169.22;280749;35;7153;-75
2023/10/06 00:24:41;;;;;;;;;;;;;;;17.76;65.12;100163.06;281430;34;7444;-75
2023/10/06 00:24:55;;;;;;;;;;;;;;;17.77;65.41;100170.06;283477;34;9044;-76
2023/10/06 00:25:11;;;;;;;;;;;;;;;17.78;65.37;100165.63;281392;34;7980;-76
2023/10/06 00:25:24;;;;;;;;;;;;;;;17.78;65.40;100161.19;280093;34;9857;-76
2023/10/06 00:25:36;;;;;;;;;;;;;;;17.78;65.35;100165.63;277417;35;8813;-76
2023/10/06 00:25:46;;;;;;;;;;;;;;;17.77;65.39;100161.28;273815;35;2399;-76
2023/10/06 00:25:57;;;;;;;;;;;;;;;17.78;65.29;100165.63;273104;35;8214;-75
2023/10/06 00:26:16;;;;;;;;;;;;;;;17.79;65.19;100164.69;273089;35;6847;-76
2023/10/06 00:28:26;;;;;;;;;;;;;;;17.73;65.39;100157.13;2495628;27;19937;-75
2023/10/06 00:28:36;;;;;;;;;;;;;;;17.73;65.52;100155.34;352242;28;1305;-74
2023/10/06 00:28:46;;;;;;;;;;;;;;;17.75;65.43;100161.41;350438;28;740;-74
2023/10/06 00:28:59;;;;;;;;;;;;;;;17.78;65.32;100155.03;349028;28;1218;-74
2023/10/06 00:29:17;;;;;;;;;;;;;;;17.82;65.34;100153.91;348989;28;878;-75
2023/10/06 00:29:29;;;;;;;;;;;;;;;17.84;65.17;100159.94;348977;28;1253;-75
2023/10/06 00:29:43;;;;;;;;;;;;;;;17.83;65.25;100158.25;347554;28;1144;-75
2023/10/06 00:29:56;;;;;;;;;;;;;;;17.83;65.28;100152.94;347596;28;894;-75
2023/10/06 00:30:11;;;;;;;;;;;;;;;17.83;65.19;100159.09;348733;28;1373;-75
2023/10/06 00:30:22;;;;;;;;;;;;;;;17.84;65.08;100154.66;347592;28;856;-75
2023/10/06 00:30:32;;;;;;;;;;;;;;;17.84;65.05;100159.94;347608;28;833;-75
2023/10/06 00:30:43;;;;;;;;;;;;;;;17.84;65.01;100158.16;349083;28;874;-75
2023/10/06 00:30:56;;;;;;;;;;;;;;;17.82;65.00;100161.84;348862;28;1363;-75
2023/10/06 00:31:08;;;;;;;;;;;;;;;17.82;65.01;100162.69;346177;28;922;-74
2023/10/06 00:31:18;;;;;;;;;;;;;;;17.80;65.02;100163.72;346044;28;1501;-74
2023/10/06 00:31:31;;;;;;;;;;;;;;;17.78;65.22;100155.03;348904;28;1335;-74
2023/10/06 00:31:41;;;;;;;;;;;;;;;17.75;65.35;100160.53;347483;28;911;-74
2023/10/06 00:31:53;;;;;;;;;;;;;;;17.75;65.41;100160.53;347156;28;835;-73
2023/10/06 00:32:21;;;;;;;;;;;;;;;17.74;65.48;100158.84;348937;28;909;-74
2023/10/06 00:32:32;;;;;;;;;;;;;;;17.74;65.61;100159.69;347526;28;808;-74
2023/10/06 00:32:42;;;;;;;;;;;;;;;17.74;65.48;100164.13;348809;28;1318;-75
2023/10/06 00:32:54;;;;;;;;;;;;;;;17.73;65.50;100157.13;348867;28;1232;-74
2023/10/06 00:33:05;;;;;;;;;;;;;;;17.74;65.50;100158.84;349525;28;832;-74
2023/10/06 00:33:17;;;;;;;;;;;;;;;17.74;65.43;100158.84;348937;28;1341;-74
2023/10/06 00:33:32;;;;;;;;;;;;;;;17.76;65.42;100162.25;348993;28;1418;-75
2023/10/06 00:33:44;;;;;;;;;;;;;;;17.76;65.48;100156.94;347471;28;1256;-75
2023/10/06 00:33:57;;;;;;;;;;;;;;;17.77;65.39;100166.56;347224;28;1508;-74
2023/10/06 00:34:11;;;;;;;;;;;;;;;17.78;65.49;100165.63;344997;28;852;-74
2023/10/06 00:34:29;;;;;;;;;;;;;;;17.77;65.46;100163.91;344745;28;2071;-74
2023/10/06 00:34:40;;;;;;;;;;;;;;;17.78;65.38;100163.81;342154;28;1595;-75
2023/10/06 00:34:52;;;;;;;;;;;;;;;17.79;65.48;100162.03;342118;28;1105;-75
2023/10/06 00:35:11;;;;;;;;;;;;;;;17.78;65.38;100155.03;341220;28;2575;-74
2023/10/06 00:35:30;;;;;;;;;;;;;;;17.77;65.40;100158.63;343098;28;2701;-75
2023/10/06 00:35:41;;;;;;;;;;;;;;;17.76;65.50;100159.59;341078;28;2649;-75
2023/10/06 00:35:51;;;;;;;;;;;;;;;17.77;65.49;100163.91;340277;29;1349;-75
2023/10/06 00:36:11;;;;;;;;;;;;;;;17.77;65.55;100158.63;337997;29;1341;-74
2023/10/06 00:36:29;;;;;;;;;;;;;;;17.76;65.54;100156.94;339665;28;1328;-75
2023/10/06 00:36:41;;;;;;;;;;;;;;;17.74;65.65;100161.50;341846;28;1530;-75
2023/10/06 00:36:52;;;;;;;;;;;;;;;17.73;65.66;100163.28;338684;29;2213;-76
2023/10/06 00:37:02;;;;;;;;;;;;;;;17.72;65.71;100166.03;338655;28;1663;-75
2023/10/06 00:37:13;;;;;;;;;;;;;;;17.72;65.70;100158.09;341001;28;1434;-75
2023/10/06 00:37:24;;;;;;;;;;;;;;;17.68;65.85;100160.06;339573;29;1417;-75
2023/10/06 00:37:38;;;;;;;;;;;;;;;17.68;66.01;100161.88;339482;29;1004;-75
2023/10/06 00:37:50;;;;;;;;;;;;;;;17.66;66.01;100171.69;341216;28;1354;-75
2023/10/06 00:38:16;;;;;;;;;;;;;;;17.66;66.01;100169.03;338211;29;1622;-75
2023/10/06 00:38:30;;;;;;;;;;;;;;;17.65;66.00;100162.00;337027;29;853;-75
2023/10/06 00:38:42;;;;;;;;;;;;;;;17.67;66.05;100168.09;334325;29;1270;-75
2023/10/06 00:38:53;;;;;;;;;;;;;;;17.66;65.97;100161.09;331635;29;1993;-75
2023/10/06 00:39:12;;;;;;;;;;;;;;;17.65;65.96;100164.66;331912;29;1945;-76
2023/10/06 00:39:23;;;;;;;;;;;;;;;17.65;66.06;100175.25;334709;29;2214;-76
2023/10/06 00:39:33;;;;;;;;;;;;;;;17.65;65.80;100162.91;330918;29;1636;-75
2023/10/06 00:39:43;;;;;;;;;;;;;;;17.65;65.96;100167.31;327654;30;1356;-75
2023/10/06 00:39:56;;;;;;;;;;;;;;;17.62;66.02;100165.69;329058;30;839;-76
2023/10/06 00:40:11;;;;;;;;;;;;;;;17.61;66.03;100167.50;329946;29;1193;-75
2023/10/06 00:40:25;;;;;;;;;;;;;;;17.58;66.41;100165.03;324913;30;2107;-75
2023/10/06 00:40:35;;;;;;;;;;;;;;;17.58;66.16;100170.31;326004;29;2076;-75
2023/10/06 00:40:51;;;;;;;;;;;;;;;17.56;66.10;100172.22;325632;30;2339;-75
2023/10/06 00:41:06;;;;;;;;;;;;;;;17.55;66.19;100175.81;324805;30;2361;-75
2023/10/06 00:41:20;;;;;;;;;;;;;;;17.55;66.07;100175.81;321696;30;2219;-74
2023/10/06 00:41:31;;;;;;;;;;;;;;;17.57;66.38;100173.91;323145;30;2548;-74
2023/10/06 00:41:43;;;;;;;;;;;;;;;17.55;66.27;100167.88;323223;30;1339;-74
2023/10/06 00:42:03;;;;;;;;;;;;;;;17.54;66.29;100171.47;325063;30;1876;-75
2023/10/06 00:42:15;;;;;;;;;;;;;;;17.53;66.33;100167.09;318531;30;1398;-75
2023/10/06 00:42:26;;;;;;;;;;;;;;;17.50;66.38;100171.72;317448;31;1273;-75
2023/10/06 00:42:38;;;;;;;;;;;;;;;17.49;66.57;100170.88;315913;31;2671;-75
2023/10/06 00:42:51;;;;;;;;;;;;;;;17.47;66.61;100171.91;317251;30;2851;-75
2023/10/06 00:43:05;;;;;;;;;;;;;;;17.46;66.77;100165.78;318025;30;3188;-75
2023/10/06 00:43:16;;;;;;;;;;;;;;;17.46;66.66;100165.78;316842;31;3186;-75
2023/10/06 00:43:34;;;;;;;;;;;;;;;17.45;66.78;100172.00;314459;31;1268;-76
2023/10/06 00:43:45;;;;;;;;;;;;;;;17.40;66.97;100171.44;314164;31;814;-75
2023/10/06 00:43:56;;;;;;;;;;;;;;;17.39;67.12;100166.22;314043;31;1410;-75
2023/10/06 00:44:09;;;;;;;;;;;;;;;17.39;66.91;100169.72;311266;31;2696;-74
2023/10/06 00:44:21;;;;;;;;;;;;;;;17.38;66.95;100168.03;311193;31;2907;-74
2023/10/06 00:44:31;;;;;;;;;;;;;;;17.38;66.93;100168.03;311362;31;4169;-76
2023/10/06 00:44:45;;;;;;;;;;;;;;;17.36;67.03;100164.63;312825;31;2810;-76
2023/10/06 00:44:55;;;;;;;;;;;;;;;17.38;66.96;100168.03;311801;31;2814;-76
2023/10/06 00:45:07;;;;;;;;;;;;;;;17.38;67.07;100167.16;307517;31;4402;-74
2023/10/06 00:45:17;;;;;;;;;;;;;;;17.38;66.95;100168.03;304976;32;4178;-74
2023/10/06 00:45:30;;;;;;;;;;;;;;;17.39;66.78;100167.06;305399;32;883;-74
2023/10/06 00:45:40;;;;;;;;;;;;;;;17.42;66.83;100174.84;300121;32;826;-74
2023/10/06 00:45:50;;;;;;;;;;;;;;;17.41;67.03;100167.84;300603;32;4319;-74
2023/10/06 00:46:01;;;;;;;;;;;;;;;17.41;67.00;100161.69;299907;32;4404;-75
2023/10/06 00:46:18;;;;;;;;;;;;;;;17.42;66.93;100171.34;302052;32;1217;-76
2023/10/06 00:46:28;;;;;;;;;;;;;;;17.40;66.89;100166.13;300093;32;1451;-76
2023/10/06 00:46:41;;;;;;;;;;;;;;;17.41;66.94;100167.84;298524;32;3191;-75
2023/10/06 00:46:52;;;;;;;;;;;;;;;17.44;66.85;100169.44;294809;33;4502;-75
2023/10/06 00:47:05;;;;;;;;;;;;;;;17.46;66.73;100167.56;292146;33;5539;-74
2023/10/06 00:47:17;;;;;;;;;;;;;;;17.45;66.77;100169.34;292211;33;6414;-74
2023/10/06 00:47:38;;;;;;;;;;;;;;;17.48;66.86;100173.63;296080;33;1299;-74
2023/10/06 00:47:52;;;;;;;;;;;;;;;17.49;66.54;100165.59;292493;33;5910;-75
2023/10/06 00:48:08;;;;;;;;;;;;;;;17.50;66.45;100167.28;290894;33;5903;-74
2023/10/06 00:48:19;;;;;;;;;;;;;;;17.51;66.69;100170.78;290802;33;5750;-75
2023/10/06 00:48:29;;;;;;;;;;;;;;;17.49;66.61;100160.28;291289;34;1006;-76
2023/10/06 00:48:40;;;;;;;;;;;;;;;17.45;66.67;100166.72;288306;34;4809;-76
2023/10/06 00:48:56;;;;;;;;;;;;;;;17.45;66.67;100164.06;286355;34;5169;-74
2023/10/06 00:49:07;;;;;;;;;;;;;;;17.47;66.82;100162.19;284327;34;6672;-75
2023/10/06 00:49:18;;;;;;;;;;;;;;;17.46;66.79;100159.63;282156;34;8015;-76
2023/10/06 00:49:31;;;;;;;;;;;;;;;17.46;66.75;100162.28;281804;35;1138;-76
2023/10/06 00:49:43;;;;;;;;;;;;;;;17.45;66.87;100161.41;280143;35;933;-75
2023/10/06 00:49:55;;;;;;;;;;;;;;;17.44;66.95;100162.38;277541;35;8038;-75
2023/10/06 00:50:08;;;;;;;;;;;;;;;17.46;66.85;100164.91;277959;35;9178;-75
2023/10/06 00:50:22;;;;;;;;;;;;;;;17.45;66.97;100157.91;280147;35;7796;-75
2023/10/06 00:50:36;;;;;;;;;;;;;;;17.45;66.97;100163.22;279525;35;7846;-75
2023/10/06 00:52:22;;;;;;;;;;;;;;;17.46;66.78;100165.78;2502867;27;19933;-76
2023/10/06 00:52:33;;;;;;;;;;;;;;;17.45;66.84;100158.78;356026;27;866;-75
2023/10/06 00:52:44;;;;;;;;;;;;;;;17.47;66.69;100162.19;354221;27;1599;-75
2023/10/06 00:52:55;;;;;;;;;;;;;;;17.49;66.70;100156.78;351683;28;1289;-75
2023/10/06 00:53:05;;;;;;;;;;;;;;;17.50;66.89;100156.72;351774;28;898;-74
2023/10/06 00:53:16;;;;;;;;;;;;;;;17.50;66.59;100162.00;350383;28;1340;-74
2023/10/06 00:53:32;;;;;;;;;;;;;;;17.51;66.38;100169.00;351684;28;1359;-75
2023/10/06 00:53:43;;;;;;;;;;;;;;;17.53;66.31;100159.16;348167;28;3922;-75
2023/10/06 00:53:56;;;;;;;;;;;;;;;17.52;66.32;100154.81;350155;28;2694;-76
2023/10/06 00:54:06;;;;;;;;;;;;;;;17.53;66.32;100167.09;351557;28;1368;-76
2023/10/06 00:54:19;;;;;;;;;;;;;;;17.53;66.28;100166.25;349301;28;2999;-75
2023/10/06 00:54:29;;;;;;;;;;;;;;;17.52;66.21;100159.25;350112;28;1207;-75
2023/10/06 00:54:43;;;;;;;;;;;;;;;17.52;66.11;100154.81;350436;28;883;-75
2023/10/06 00:54:53;;;;;;;;;;;;;;;17.51;66.03;100153.13;351725;28;1297;-75
2023/10/06 00:55:05;;;;;;;;;;;;;;;17.50;65.93;100162.00;348722;28;1364;-75
2023/10/06 00:55:17;;;;;;;;;;;;;;;17.50;65.87;100156.72;348962;28;1564;-75
2023/10/06 00:55:30;;;;;;;;;;;;;;;17.49;65.86;100160.28;351705;28;1362;-75
2023/10/06 00:55:40;;;;;;;;;;;;;;;17.50;65.90;100156.72;351724;28;1009;-75
2023/10/06 00:55:51;;;;;;;;;;;;;;;17.49;65.93;100149.72;351845;28;1505;-75
2023/10/06 00:56:10;;;;;;;;;;;;;;;17.49;65.83;100160.28;348089;28;771;-75
2023/10/06 00:56:23;;;;;;;;;;;;;;;17.50;65.69;100151.41;348996;28;1026;-75
2023/10/06 00:56:33;;;;;;;;;;;;;;;17.53;65.81;100142.44;349944;28;998;-75
2023/10/06 00:56:43;;;;;;;;;;;;;;;17.52;65.75;100149.53;348539;28;1103;-75
2023/10/06 00:56:57;;;;;;;;;;;;;;;17.52;65.60;100154.81;347545;28;1369;-76
2023/10/06 00:57:08;;;;;;;;;;;;;;;17.54;65.65;100152.06;348199;28;1107;-76
2023/10/06 00:57:20;;;;;;;;;;;;;;;17.54;65.53;100147.63;346263;28;820;-76
2023/10/06 00:57:30;;;;;;;;;;;;;;;17.54;65.64;100150.28;350355;28;1250;-76
2023/10/06 00:57:52;;;;;;;;;;;;;;;17.55;65.59;100149.34;350386;28;918;-76
2023/10/06 00:58:04;;;;;;;;;;;;;;;17.53;65.64;100156.53;347878;28;1283;-76
2023/10/06 00:58:16;;;;;;;;;;;;;;;17.54;65.55;100152.94;346544;28;1528;-76
2023/10/06 00:58:27;;;;;;;;;;;;;;;17.54;65.60;100145.00;344809;28;1210;-76
2023/10/06 00:58:39;;;;;;;;;;;;;;;17.52;65.71;100148.66;346265;28;824;-75
2023/10/06 00:58:49;;;;;;;;;;;;;;;17.51;65.59;100147.81;344753;28;1247;-75
2023/10/06 00:59:06;;;;;;;;;;;;;;;17.53;65.50;100150.38;344588;28;1181;-75
2023/10/06 00:59:17;;;;;;;;;;;;;;;17.53;65.51;100145.94;343387;28;1319;-75
2023/10/06 00:59:27;;;;;;;;;;;;;;;17.54;65.54;100145.00;343600;28;942;-75
2023/10/06 00:59:37;;;;;;;;;;;;;;;17.53;65.60;100145.94;344869;28;1372;-75
2023/10/06 00:59:48;;;;;;;;;;;;;;;17.57;65.45;100143.94;346224;28;809;-75
2023/10/06 00:59:58;;;;;;;;;;;;;;;17.57;65.33;100146.59;344445;28;1032;-75
2023/10/06 01:00:20;;;;;;;;;;;;;;;17.56;65.41;100140.44;342387;28;1356;-75
2023/10/06 01:00:32;;;;;;;;;;;;;;;17.55;65.33;100141.41;339479;29;1365;-75
2023/10/06 01:00:43;;;;;;;;;;;;;;;17.55;65.52;100146.69;339157;28;1153;-75
2023/10/06 01:00:56;;;;;;;;;;;;;;;17.54;65.33;100146.78;339580;29;1224;-75
2023/10/06 01:01:07;;;;;;;;;;;;;;;17.54;65.50;100144.13;335677;29;914;-75
2023/10/06 01:01:18;;;;;;;;;;;;;;;17.54;65.42;100150.28;335578;29;1265;-75
2023/10/06 01:01:28;;;;;;;;;;;;;;;17.54;65.44;100147.63;334466;29;876;-75
2023/10/06 01:01:39;;;;;;;;;;;;;;;17.56;65.45;100145.75;334471;29;700;-75
2023/10/06 01:01:50;;;;;;;;;;;;;;;17.55;65.49;100146.69;333918;29;1317;-75
2023/10/06 01:02:00;;;;;;;;;;;;;;;17.56;65.37;100144.91;332529;29;1044;-75
2023/10/06 01:02:11;;;;;;;;;;;;;;;17.55;65.42;100149.34;331755;29;1357;-75
2023/10/06 01:02:23;;;;;;;;;;;;;;;17.54;65.43;100146.78;326911;30;1396;-75
2023/10/06 01:02:33;;;;;;;;;;;;;;;17.55;65.33;100143.19;327565;30;1950;-76
2023/10/06 01:02:44;;;;;;;;;;;;;;;17.56;65.31;100145.75;325422;30;2728;-74
2023/10/06 01:02:55;;;;;;;;;;;;;;;17.56;65.31;100155.47;323976;30;2403;-76
2023/10/06 01:03:10;;;;;;;;;;;;;;;17.55;65.36;100143.19;323702;30;3980;-76
2023/10/06 01:03:20;;;;;;;;;;;;;;;17.56;65.29;100142.25;326458;30;2035;-76
2023/10/06 01:03:31;;;;;;;;;;;;;;;17.56;65.37;100145.75;328268;29;2690;-77
2023/10/06 01:03:43;;;;;;;;;;;;;;;17.54;65.54;100152.94;329755;29;1263;-75
2023/10/06 01:04:08;;;;;;;;;;;;;;;17.54;65.49;100147.63;329427;30;902;-74
2023/10/06 01:04:24;;;;;;;;;;;;;;;17.55;65.88;100149.34;329035;29;1794;-76
2023/10/06 01:04:38;;;;;;;;;;;;;;;17.54;65.61;100145.00;326469;30;2173;-75
2023/10/06 01:04:52;;;;;;;;;;;;;;;17.55;65.97;100149.34;326479;30;2423;-75
2023/10/06 01:05:08;;;;;;;;;;;;;;;17.55;65.84;100144.03;324651;30;2542;-76
2023/10/06 01:05:21;;;;;;;;;;;;;;;17.57;65.85;100147.44;324466;30;2694;-75
2023/10/06 01:05:31;;;;;;;;;;;;;;;17.56;65.85;100145.75;322899;30;2778;-75
2023/10/06 01:05:45;;;;;;;;;;;;;;;17.54;65.94;100142.34;323313;30;1796;-74
2023/10/06 01:06:02;;;;;;;;;;;;;;;17.54;65.95;100152.94;324146;30;1258;-74
2023/10/06 01:06:14;;;;;;;;;;;;;;;17.52;65.92;100148.66;321301;30;2071;-74
2023/10/06 01:06:33;;;;;;;;;;;;;;;17.51;65.98;100150.47;320140;30;1149;-75
2023/10/06 01:06:43;;;;;;;;;;;;;;;17.51;65.87;100145.19;315246;31;2823;-74
2023/10/06 01:06:54;;;;;;;;;;;;;;;17.51;65.92;100145.19;316168;31;1411;-74
2023/10/06 01:07:07;;;;;;;;;;;;;;;17.50;66.06;100146.13;313125;31;3377;-74
2023/10/06 01:07:18;;;;;;;;;;;;;;;17.51;65.98;100142.53;314875;31;2998;-74
2023/10/06 01:07:28;;;;;;;;;;;;;;;17.51;65.87;100153.13;315060;31;3267;-74
2023/10/06 01:07:38;;;;;;;;;;;;;;;17.51;65.76;100141.69;314061;31;1338;-74
2023/10/06 01:07:49;;;;;;;;;;;;;;;17.51;65.82;100146.97;315614;31;3450;-76
2023/10/06 01:07:59;;;;;;;;;;;;;;;17.51;65.71;100149.63;314261;31;2310;-76
2023/10/06 01:08:11;;;;;;;;;;;;;;;17.49;65.82;100139.13;313036;31;1329;-76
2023/10/06 01:08:22;;;;;;;;;;;;;;;17.50;65.85;100150.56;313048;31;925;-76
2023/10/06 01:08:33;;;;;;;;;;;;;;;17.49;65.71;100144.41;309057;31;3074;-76
2023/10/06 01:08:52;;;;;;;;;;;;;;;17.48;65.92;100147.16;310344;31;3612;-76
2023/10/06 01:09:12;;;;;;;;;;;;;;;17.47;65.91;100142.81;311710;31;4022;-76
2023/10/06 01:09:33;;;;;;;;;;;;;;;17.48;65.88;100147.16;307435;32;1755;-76
2023/10/06 01:09:56;;;;;;;;;;;;;;;17.47;65.84;100148.94;302469;32;4291;-76
2023/10/06 01:10:14;;;;;;;;;;;;;;;17.47;65.93;100143.66;299018;33;1286;-75
2023/10/06 01:10:27;;;;;;;;;;;;;;;17.46;66.05;100149.88;297078;33;1430;-75
2023/10/06 01:10:39;;;;;;;;;;;;;;;17.46;65.95;100139.31;295202;33;866;-75
2023/10/06 01:10:51;;;;;;;;;;;;;;;17.46;66.15;100154.34;294354;33;4408;-75
2023/10/06 01:11:16;;;;;;;;;;;;;;;17.43;66.17;100147.44;295211;33;5172;-75
2023/10/06 01:11:27;;;;;;;;;;;;;;;17.43;66.14;100149.22;291237;33;6531;-75
2023/10/06 01:11:40;;;;;;;;;;;;;;;17.45;66.05;100153.47;291448;34;871;-75
2023/10/06 01:11:51;;;;;;;;;;;;;;;17.43;66.17;100144.78;289248;33;6359;-75
2023/10/06 01:12:11;;;;;;;;;;;;;;;17.43;66.08;100150.06;287765;34;6080;-75
2023/10/06 01:12:21;;;;;;;;;;;;;;;17.45;66.13;100148.19;291274;33;2855;-75
2023/10/06 01:12:32;;;;;;;;;;;;;;;17.47;66.14;100145.44;289762;33;4859;-76
2023/10/06 01:12:43;;;;;;;;;;;;;;;17.49;65.92;100141.78;288124;33;4963;-75
2023/10/06 01:12:54;;;;;;;;;;;;;;;17.50;66.09;100155.84;291925;33;839;-75
2023/10/06 01:13:12;;;;;;;;;;;;;;;17.48;66.27;100141.88;286416;34;6415;-75
2023/10/06 01:13:23;;;;;;;;;;;;;;;17.45;66.33;100142.91;285504;34;1431;-75
2023/10/06 01:13:33;;;;;;;;;;;;;;;17.44;66.29;100146.47;281180;34;8767;-74
2023/10/06 01:14:21;;;;;;;;;;;;;;;17.43;66.36;100147.44;281427;34;8329;-74
2023/10/06 01:14:27;;;;;;;;;;;;;;;17.39;66.53;100147.72;280734;35;8541;-75
2023/10/06 01:14:37;;;;;;;;;;;;;;;17.37;66.54;100146.94;279282;35;866;-75
2023/10/06 01:14:51;;;;;;;;;;;;;;;17.37;66.50;100145.16;276376;35;6871;-75
2023/10/06 01:17:14;;;;;;;;;;;;;;;17.35;66.57;100144.41;2502435;27;19937;-76
2023/10/06 01:17:25;;;;;;;;;;;;;;;17.36;66.62;100151.38;350302;28;1388;-75
2023/10/06 01:17:35;;;;;;;;;;;;;;;17.37;66.73;100145.16;350411;28;887;-75
2023/10/06 01:17:46;;;;;;;;;;;;;;;17.37;66.56;100147.78;351852;28;729;-75
2023/10/06 01:17:58;;;;;;;;;;;;;;;17.36;66.58;100140.81;348964;28;1316;-76
2023/10/06 01:18:18;;;;;;;;;;;;;;;17.35;66.60;100136.47;349024;28;859;-76
2023/10/06 01:18:35;;;;;;;;;;;;;;;17.31;66.71;100148.19;346125;28;1252;-75
2023/10/06 01:18:47;;;;;;;;;;;;;;;17.32;66.53;100149.91;346152;28;924;-75